sensor_id;sensor_type;location;lat;lon;timestamp;temperature;humidity
20182;DHT22;10250;50.756;6.172;2023-07-28T00:00:59;16.40;99.90
20182;DHT22;10250;50.756;6.172;2023-07-28T00:03:00;16.30;99.90
20182;DHT22;10250;50.756;6.172;2023-07-28T00:05:00;16.30;99.90
20182;DHT22;10250;50.756;6.172;2023-07-28T00:07:02;16.40;99.90
20182;DHT22;10250;50.756;6.172;2023-07-28T00:09:03;16.40;99.90
20182;DHT22;10250;50.756;6.172;2023-07-28T00:11:08;16.40;99.90
20182;DHT22;10250;50.756;6.172;2023-07-28T00:13:09;16.40;99.90
20182;DHT22;10250;50.756;6.172;2023-07-28T00:15:09;16.40;99.90
20182;DHT22;10250;50.756;6.172;2023-07-28T00:17:10;16.40;99.90
20182;DHT22;10250;50.756;6.172;2023-07-28T00:19:10;16.40;99.90
20182;DHT22;10250;50.756;6.172;2023-07-28T00:21:11;16.40;99.90
20182;DHT22;10250;50.756;6.172;2023-07-28T00:23:12;16.40;99.90
20182;DHT22;10250;50.756;6.172;2023-07-28T00:25:12;16.50;99.90
20182;DHT22;10250;50.756;6.172;2023-07-28T00:27:13;16.50;99.90
20182;DHT22;10250;50.756;6.172;2023-07-28T00:29:15;16.50;99.90
20182;DHT22;10250;50.756;6.172;2023-07-28T00:31:15;16.40;99.90
20182;DHT22;10250;50.756;6.172;2023-07-28T00:33:16;16.50;99.90
20182;DHT22;10250;50.756;6.172;2023-07-28T00:35:17;16.50;99.90
20182;DHT22;10250;50.756;6.172;2023-07-28T00:37:17;16.50;99.90
20182;DHT22;10250;50.756;6.172;2023-07-28T00:39:18;16.40;99.90
20182;DHT22;10250;50.756;6.172;2023-07-28T00:41:18;16.40;99.90
20182;DHT22;10250;50.756;6.172;2023-07-28T00:43:19;16.40;99.90
20182;DHT22;10250;50.756;6.172;2023-07-28T00:45:20;16.50;99.90
20182;DHT22;10250;50.756;6.172;2023-07-28T00:47:21;16.50;99.90
20182;DHT22;10250;50.756;6.172;2023-07-28T00:49:21;16.40;99.90
20182;DHT22;10250;50.756;6.172;2023-07-28T00:51:22;16.40;99.90
20182;DHT22;10250;50.756;6.172;2023-07-28T00:53:24;16.40;99.90
20182;DHT22;10250;50.756;6.172;2023-07-28T00:55:25;16.40;99.90
20182;DHT22;10250;50.756;6.172;2023-07-28T00:57:26;16.40;99.90
20182;DHT22;10250;50.756;6.172;2023-07-28T00:59:27;16.40;99.90
20182;DHT22;10250;50.756;6.172;2023-07-28T01:01:27;16.50;99.90
20182;DHT22;10250;50.756;6.172;2023-07-28T01:03:28;16.40;99.90
20182;DHT22;10250;50.756;6.172;2023-07-28T01:05:39;16.40;99.90
20182;DHT22;10250;50.756;6.172;2023-07-28T01:08:02;16.40;99.90
20182;DHT22;10250;50.756;6.172;2023-07-28T01:10:10;16.40;99.90
20182;DHT22;10250;50.756;6.172;2023-07-28T01:12:12;16.40;99.90
20182;DHT22;10250;50.756;6.172;2023-07-28T01:14:12;16.50;99.90
20182;DHT22;10250;50.756;6.172;2023-07-28T01:16:13;16.40;99.90
20182;DHT22;10250;50.756;6.172;2023-07-28T01:18:15;16.40;99.90
20182;DHT22;10250;50.756;6.172;2023-07-28T01:20:16;16.40;99.90
20182;DHT22;10250;50.756;6.172;2023-07-28T01:24:54;16.40;99.90
20182;DHT22;10250;50.756;6.172;2023-07-28T01:26:56;16.40;99.90
20182;DHT22;10250;50.756;6.172;2023-07-28T01:28:57;16.40;99.90
20182;DHT22;10250;50.756;6.172;2023-07-28T01:31:02;16.50;99.90
20182;DHT22;10250;50.756;6.172;2023-07-28T01:33:06;16.50;99.90
20182;DHT22;10250;50.756;6.172;2023-07-28T01:35:07;16.50;99.90
20182;DHT22;10250;50.756;6.172;2023-07-28T01:37:08;16.50;99.90
20182;DHT22;10250;50.756;6.172;2023-07-28T01:39:09;16.50;99.90
20182;DHT22;10250;50.756;6.172;2023-07-28T01:41:09;16.50;99.90
20182;DHT22;10250;50.756;6.172;2023-07-28T01:43:10;16.40;99.90
20182;DHT22;10250;50.756;6.172;2023-07-28T01:45:10;16.40;99.90
20182;DHT22;10250;50.756;6.172;2023-07-28T01:47:11;16.40;99.90
20182;DHT22;10250;50.756;6.172;2023-07-28T01:49:11;16.50;99.90
20182;DHT22;10250;50.756;6.172;2023-07-28T01:51:12;16.40;99.90
20182;DHT22;10250;50.756;6.172;2023-07-28T01:53:12;16.40;99.90
20182;DHT22;10250;50.756;6.172;2023-07-28T01:55:13;16.40;99.90
20182;DHT22;10250;50.756;6.172;2023-07-28T01:57:14;16.40;99.90
20182;DHT22;10250;50.756;6.172;2023-07-28T01:59:14;16.50;99.90
20182;DHT22;10250;50.756;6.172;2023-07-28T02:01:15;16.40;99.90
20182;DHT22;10250;50.756;6.172;2023-07-28T02:03:16;16.50;99.90
20182;DHT22;10250;50.756;6.172;2023-07-28T02:05:17;16.40;99.90
20182;DHT22;10250;50.756;6.172;2023-07-28T02:07:17;16.50;99.90
20182;DHT22;10250;50.756;6.172;2023-07-28T02:09:18;16.50;99.90
20182;DHT22;10250;50.756;6.172;2023-07-28T02:11:18;16.50;99.90
20182;DHT22;10250;50.756;6.172;2023-07-28T02:13:19;16.50;99.90
20182;DHT22;10250;50.756;6.172;2023-07-28T02:15:19;16.50;99.90
20182;DHT22;10250;50.756;6.172;2023-07-28T02:17:20;16.50;99.90
20182;DHT22;10250;50.756;6.172;2023-07-28T02:19:20;16.50;99.90
20182;DHT22;10250;50.756;6.172;2023-07-28T02:21:21;16.50;99.90
20182;DHT22;10250;50.756;6.172;2023-07-28T02:23:22;16.50;99.90
20182;DHT22;10250;50.756;6.172;2023-07-28T02:25:22;16.50;99.90
20182;DHT22;10250;50.756;6.172;2023-07-28T02:27:23;16.50;99.90
20182;DHT22;10250;50.756;6.172;2023-07-28T02:29:23;16.50;99.90
20182;DHT22;10250;50.756;6.172;2023-07-28T02:31:24;16.50;99.90
20182;DHT22;10250;50.756;6.172;2023-07-28T02:33:24;16.50;99.90
20182;DHT22;10250;50.756;6.172;2023-07-28T02:35:25;16.50;99.90
20182;DHT22;10250;50.756;6.172;2023-07-28T02:37:26;16.50;99.90
20182;DHT22;10250;50.756;6.172;2023-07-28T02:39:26;16.50;99.90
20182;DHT22;10250;50.756;6.172;2023-07-28T02:41:27;16.40;99.90
20182;DHT22;10250;50.756;6.172;2023-07-28T02:43:27;16.40;99.90
20182;DHT22;10250;50.756;6.172;2023-07-28T02:45:28;16.40;99.90
20182;DHT22;10250;50.756;6.172;2023-07-28T02:47:28;16.40;99.90
20182;DHT22;10250;50.756;6.172;2023-07-28T02:49:29;16.40;99.90
20182;DHT22;10250;50.756;6.172;2023-07-28T02:51:30;16.40;99.90
20182;DHT22;10250;50.756;6.172;2023-07-28T02:53:31;16.40;99.90
20182;DHT22;10250;50.756;6.172;2023-07-28T02:55:31;16.40;99.90
20182;DHT22;10250;50.756;6.172;2023-07-28T02:57:32;16.50;99.90
20182;DHT22;10250;50.756;6.172;2023-07-28T02:59:32;16.50;99.90
20182;DHT22;10250;50.756;6.172;2023-07-28T03:01:33;16.50;99.90
20182;DHT22;10250;50.756;6.172;2023-07-28T03:03:34;16.50;99.90
20182;DHT22;10250;50.756;6.172;2023-07-28T03:05:34;16.50;99.90
20182;DHT22;10250;50.756;6.172;2023-07-28T03:07:35;16.40;99.90
20182;DHT22;10250;50.756;6.172;2023-07-28T03:09:35;16.50;99.90
20182;DHT22;10250;50.756;6.172;2023-07-28T03:11:36;16.50;99.90
20182;DHT22;10250;50.756;6.172;2023-07-28T03:13:37;16.50;99.90
20182;DHT22;10250;50.756;6.172;2023-07-28T03:15:37;16.50;99.90
20182;DHT22;10250;50.756;6.172;2023-07-28T03:17:38;16.50;99.90
20182;DHT22;10250;50.756;6.172;2023-07-28T03:19:38;16.50;99.90
20182;DHT22;10250;50.756;6.172;2023-07-28T03:21:39;16.50;99.90
20182;DHT22;10250;50.756;6.172;2023-07-28T03:23:39;16.50;99.90
20182;DHT22;10250;50.756;6.172;2023-07-28T03:25:40;16.50;99.90
20182;DHT22;10250;50.756;6.172;2023-07-28T03:27:41;16.50;99.90
20182;DHT22;10250;50.756;6.172;2023-07-28T03:29:41;16.50;99.90
20182;DHT22;10250;50.756;6.172;2023-07-28T03:31:42;16.50;99.90
20182;DHT22;10250;50.756;6.172;2023-07-28T03:33:42;16.50;99.90
20182;DHT22;10250;50.756;6.172;2023-07-28T03:35:43;16.50;99.90
20182;DHT22;10250;50.756;6.172;2023-07-28T03:37:43;16.50;99.90
20182;DHT22;10250;50.756;6.172;2023-07-28T03:39:44;16.50;99.90
20182;DHT22;10250;50.756;6.172;2023-07-28T03:41:45;16.50;99.90
20182;DHT22;10250;50.756;6.172;2023-07-28T03:43:46;16.50;99.90
20182;DHT22;10250;50.756;6.172;2023-07-28T03:45:46;16.50;99.90
20182;DHT22;10250;50.756;6.172;2023-07-28T03:47:47;16.50;99.90
20182;DHT22;10250;50.756;6.172;2023-07-28T03:49:48;16.60;99.90
20182;DHT22;10250;50.756;6.172;2023-07-28T03:51:48;16.60;99.90
20182;DHT22;10250;50.756;6.172;2023-07-28T03:53:49;16.60;99.90
20182;DHT22;10250;50.756;6.172;2023-07-28T03:55:49;16.60;99.90
20182;DHT22;10250;50.756;6.172;2023-07-28T03:57:50;16.50;99.90
20182;DHT22;10250;50.756;6.172;2023-07-28T03:59:50;16.60;99.90
20182;DHT22;10250;50.756;6.172;2023-07-28T04:01:51;16.50;99.90
20182;DHT22;10250;50.756;6.172;2023-07-28T04:03:52;16.60;99.90
20182;DHT22;10250;50.756;6.172;2023-07-28T04:05:53;16.50;99.90
20182;DHT22;10250;50.756;6.172;2023-07-28T04:07:54;16.60;99.90
20182;DHT22;10250;50.756;6.172;2023-07-28T04:09:54;16.60;99.90
20182;DHT22;10250;50.756;6.172;2023-07-28T04:11:55;16.60;99.90
20182;DHT22;10250;50.756;6.172;2023-07-28T04:13:55;16.60;99.90
20182;DHT22;10250;50.756;6.172;2023-07-28T04:15:56;16.60;99.90
20182;DHT22;10250;50.756;6.172;2023-07-28T04:17:56;16.60;99.90
20182;DHT22;10250;50.756;6.172;2023-07-28T04:19:57;16.60;99.90
20182;DHT22;10250;50.756;6.172;2023-07-28T04:21:57;16.70;99.90
20182;DHT22;10250;50.756;6.172;2023-07-28T04:23:58;16.60;99.90
20182;DHT22;10250;50.756;6.172;2023-07-28T04:25:58;16.60;99.90
20182;DHT22;10250;50.756;6.172;2023-07-28T04:27:59;16.70;99.90
20182;DHT22;10250;50.756;6.172;2023-07-28T04:29:59;16.60;99.90
20182;DHT22;10250;50.756;6.172;2023-07-28T04:32:00;16.70;99.90
20182;DHT22;10250;50.756;6.172;2023-07-28T04:34:02;16.70;99.90
20182;DHT22;10250;50.756;6.172;2023-07-28T04:36:04;16.70;99.90
20182;DHT22;10250;50.756;6.172;2023-07-28T04:38:05;16.70;99.90
20182;DHT22;10250;50.756;6.172;2023-07-28T04:40:06;16.70;99.90
20182;DHT22;10250;50.756;6.172;2023-07-28T04:42:08;16.70;99.90
20182;DHT22;10250;50.756;6.172;2023-07-28T04:44:10;16.70;99.90
20182;DHT22;10250;50.756;6.172;2023-07-28T04:46:11;16.70;99.90
20182;DHT22;10250;50.756;6.172;2023-07-28T04:48:11;16.70;99.90
20182;DHT22;10250;50.756;6.172;2023-07-28T04:50:12;16.70;99.90
20182;DHT22;10250;50.756;6.172;2023-07-28T04:52:12;16.70;99.90
20182;DHT22;10250;50.756;6.172;2023-07-28T04:54:13;16.80;99.90
20182;DHT22;10250;50.756;6.172;2023-07-28T04:56:14;16.70;99.90
20182;DHT22;10250;50.756;6.172;2023-07-28T04:58:14;16.80;99.90
20182;DHT22;10250;50.756;6.172;2023-07-28T05:00:15;16.80;99.90
20182;DHT22;10250;50.756;6.172;2023-07-28T05:02:15;16.80;99.90
20182;DHT22;10250;50.756;6.172;2023-07-28T05:04:16;16.80;99.90
20182;DHT22;10250;50.756;6.172;2023-07-28T05:06:16;16.80;99.90
20182;DHT22;10250;50.756;6.172;2023-07-28T05:08:18;16.70;99.90
20182;DHT22;10250;50.756;6.172;2023-07-28T05:10:18;16.80;99.90
20182;DHT22;10250;50.756;6.172;2023-07-28T05:12:19;16.70;99.90
20182;DHT22;10250;50.756;6.172;2023-07-28T05:14:20;16.80;99.90
20182;DHT22;10250;50.756;6.172;2023-07-28T05:16:20;16.80;99.90
20182;DHT22;10250;50.756;6.172;2023-07-28T05:18:21;16.80;99.90
20182;DHT22;10250;50.756;6.172;2023-07-28T05:20:21;16.80;99.90
20182;DHT22;10250;50.756;6.172;2023-07-28T05:22:22;16.80;99.90
20182;DHT22;10250;50.756;6.172;2023-07-28T05:24:22;16.80;99.90
20182;DHT22;10250;50.756;6.172;2023-07-28T05:26:23;16.80;99.90
20182;DHT22;10250;50.756;6.172;2023-07-28T05:28:23;16.80;99.90
20182;DHT22;10250;50.756;6.172;2023-07-28T05:30:24;16.90;99.90
20182;DHT22;10250;50.756;6.172;2023-07-28T05:32:24;16.80;99.90
20182;DHT22;10250;50.756;6.172;2023-07-28T05:34:25;16.80;99.90
20182;DHT22;10250;50.756;6.172;2023-07-28T05:36:26;16.90;99.90
20182;DHT22;10250;50.756;6.172;2023-07-28T05:38:26;16.90;99.90
20182;DHT22;10250;50.756;6.172;2023-07-28T05:40:27;16.90;99.90
20182;DHT22;10250;50.756;6.172;2023-07-28T05:42:28;16.90;99.90
20182;DHT22;10250;50.756;6.172;2023-07-28T05:44:28;16.90;99.90
20182;DHT22;10250;50.756;6.172;2023-07-28T05:46:29;16.90;99.90
20182;DHT22;10250;50.756;6.172;2023-07-28T05:48:30;16.90;99.90
20182;DHT22;10250;50.756;6.172;2023-07-28T05:50:31;16.90;99.90
20182;DHT22;10250;50.756;6.172;2023-07-28T05:52:31;16.90;99.90
20182;DHT22;10250;50.756;6.172;2023-07-28T05:54:32;16.90;99.90
20182;DHT22;10250;50.756;6.172;2023-07-28T05:56:32;16.90;99.90
20182;DHT22;10250;50.756;6.172;2023-07-28T05:58:33;16.90;99.90
20182;DHT22;10250;50.756;6.172;2023-07-28T06:00:33;16.90;99.90
20182;DHT22;10250;50.756;6.172;2023-07-28T06:02:34;17.00;99.90
20182;DHT22;10250;50.756;6.172;2023-07-28T06:04:34;17.00;99.90
20182;DHT22;10250;50.756;6.172;2023-07-28T06:06:35;17.00;99.90
20182;DHT22;10250;50.756;6.172;2023-07-28T06:08:36;17.00;99.90
20182;DHT22;10250;50.756;6.172;2023-07-28T06:10:37;17.00;99.90
20182;DHT22;10250;50.756;6.172;2023-07-28T06:12:37;17.10;99.90
20182;DHT22;10250;50.756;6.172;2023-07-28T06:14:38;17.10;99.90
20182;DHT22;10250;50.756;6.172;2023-07-28T06:16:38;17.10;99.90
20182;DHT22;10250;50.756;6.172;2023-07-28T06:18:40;17.10;99.90
20182;DHT22;10250;50.756;6.172;2023-07-28T06:20:43;17.10;99.90
20182;DHT22;10250;50.756;6.172;2023-07-28T06:22:44;17.10;99.90
20182;DHT22;10250;50.756;6.172;2023-07-28T06:24:45;17.20;99.90
20182;DHT22;10250;50.756;6.172;2023-07-28T06:26:46;17.20;99.90
20182;DHT22;10250;50.756;6.172;2023-07-28T06:28:46;17.20;99.90
20182;DHT22;10250;50.756;6.172;2023-07-28T06:30:47;17.20;99.90
20182;DHT22;10250;50.756;6.172;2023-07-28T06:32:47;17.20;99.90
20182;DHT22;10250;50.756;6.172;2023-07-28T06:34:48;17.20;99.90
20182;DHT22;10250;50.756;6.172;2023-07-28T06:36:49;17.20;99.90
20182;DHT22;10250;50.756;6.172;2023-07-28T06:38:49;17.30;99.90
20182;DHT22;10250;50.756;6.172;2023-07-28T06:40:52;17.20;99.90
20182;DHT22;10250;50.756;6.172;2023-07-28T06:42:52;17.20;99.90
20182;DHT22;10250;50.756;6.172;2023-07-28T06:44:53;17.20;99.90
20182;DHT22;10250;50.756;6.172;2023-07-28T06:46:53;17.20;99.90
20182;DHT22;10250;50.756;6.172;2023-07-28T06:48:54;17.20;99.90
20182;DHT22;10250;50.756;6.172;2023-07-28T06:50:54;17.20;99.90
20182;DHT22;10250;50.756;6.172;2023-07-28T06:52:55;17.30;99.90
20182;DHT22;10250;50.756;6.172;2023-07-28T06:54:56;17.30;99.90
20182;DHT22;10250;50.756;6.172;2023-07-28T06:56:56;17.30;99.90
20182;DHT22;10250;50.756;6.172;2023-07-28T06:58:57;17.30;99.90
20182;DHT22;10250;50.756;6.172;2023-07-28T07:00:57;17.40;99.90
20182;DHT22;10250;50.756;6.172;2023-07-28T07:02:58;17.40;99.90
20182;DHT22;10250;50.756;6.172;2023-07-28T07:04:59;17.50;99.90
20182;DHT22;10250;50.756;6.172;2023-07-28T07:06:59;17.50;99.90
20182;DHT22;10250;50.756;6.172;2023-07-28T07:09:00;17.50;99.90
20182;DHT22;10250;50.756;6.172;2023-07-28T07:11:01;17.60;99.90
20182;DHT22;10250;50.756;6.172;2023-07-28T07:13:01;17.60;99.90
20182;DHT22;10250;50.756;6.172;2023-07-28T07:15:03;17.50;99.90
20182;DHT22;10250;50.756;6.172;2023-07-28T07:17:04;17.50;99.90
20182;DHT22;10250;50.756;6.172;2023-07-28T07:19:04;17.50;99.90
20182;DHT22;10250;50.756;6.172;2023-07-28T07:21:05;17.50;99.90
20182;DHT22;10250;50.756;6.172;2023-07-28T07:23:06;17.50;99.90
20182;DHT22;10250;50.756;6.172;2023-07-28T07:25:07;17.60;99.90
20182;DHT22;10250;50.756;6.172;2023-07-28T07:27:08;17.60;99.90
20182;DHT22;10250;50.756;6.172;2023-07-28T07:29:11;17.70;99.90
20182;DHT22;10250;50.756;6.172;2023-07-28T07:31:12;17.70;99.90
20182;DHT22;10250;50.756;6.172;2023-07-28T07:33:14;17.70;99.90
20182;DHT22;10250;50.756;6.172;2023-07-28T07:35:14;17.90;99.90
20182;DHT22;10250;50.756;6.172;2023-07-28T07:37:15;17.90;99.90
20182;DHT22;10250;50.756;6.172;2023-07-28T07:39:16;17.90;99.90
20182;DHT22;10250;50.756;6.172;2023-07-28T07:41:16;18.00;99.90
20182;DHT22;10250;50.756;6.172;2023-07-28T07:43:20;18.10;99.90
20182;DHT22;10250;50.756;6.172;2023-07-28T07:45:20;18.10;99.90
20182;DHT22;10250;50.756;6.172;2023-07-28T07:47:21;18.20;99.90
20182;DHT22;10250;50.756;6.172;2023-07-28T07:49:22;18.20;99.90
20182;DHT22;10250;50.756;6.172;2023-07-28T07:51:22;18.30;99.90
20182;DHT22;10250;50.756;6.172;2023-07-28T07:53:23;18.30;99.90
20182;DHT22;10250;50.756;6.172;2023-07-28T07:55:24;18.30;99.90
20182;DHT22;10250;50.756;6.172;2023-07-28T07:57:24;18.30;99.90
20182;DHT22;10250;50.756;6.172;2023-07-28T07:59:25;18.30;99.90
20182;DHT22;10250;50.756;6.172;2023-07-28T08:01:28;18.40;99.90
20182;DHT22;10250;50.756;6.172;2023-07-28T08:03:28;18.40;99.90
20182;DHT22;10250;50.756;6.172;2023-07-28T08:05:29;18.40;99.90
20182;DHT22;10250;50.756;6.172;2023-07-28T08:07:30;18.40;99.90
20182;DHT22;10250;50.756;6.172;2023-07-28T08:11:31;18.60;99.90
20182;DHT22;10250;50.756;6.172;2023-07-28T08:13:32;18.70;99.90
20182;DHT22;10250;50.756;6.172;2023-07-28T08:15:32;18.90;99.90
20182;DHT22;10250;50.756;6.172;2023-07-28T08:17:33;19.00;99.90
20182;DHT22;10250;50.756;6.172;2023-07-28T08:19:33;19.10;99.90
20182;DHT22;10250;50.756;6.172;2023-07-28T08:21:34;19.10;99.90
20182;DHT22;10250;50.756;6.172;2023-07-28T08:23:36;19.20;99.90
20182;DHT22;10250;50.756;6.172;2023-07-28T08:25:37;19.20;99.90
20182;DHT22;10250;50.756;6.172;2023-07-28T08:27:38;19.30;99.90
20182;DHT22;10250;50.756;6.172;2023-07-28T08:29:39;19.40;99.90
20182;DHT22;10250;50.756;6.172;2023-07-28T08:31:39;19.40;99.90
20182;DHT22;10250;50.756;6.172;2023-07-28T08:33:40;19.30;99.90
20182;DHT22;10250;50.756;6.172;2023-07-28T08:35:40;19.30;99.90
20182;DHT22;10250;50.756;6.172;2023-07-28T08:37:41;19.30;99.90
20182;DHT22;10250;50.756;6.172;2023-07-28T08:39:41;19.20;99.90
20182;DHT22;10250;50.756;6.172;2023-07-28T08:41:42;19.10;99.90
20182;DHT22;10250;50.756;6.172;2023-07-28T08:43:43;19.00;99.90
20182;DHT22;10250;50.756;6.172;2023-07-28T08:45:44;19.00;99.90
20182;DHT22;10250;50.756;6.172;2023-07-28T08:47:44;19.00;99.90
20182;DHT22;10250;50.756;6.172;2023-07-28T08:49:45;18.90;99.90
20182;DHT22;10250;50.756;6.172;2023-07-28T08:51:50;19.00;99.90
20182;DHT22;10250;50.756;6.172;2023-07-28T08:53:51;19.10;99.90
20182;DHT22;10250;50.756;6.172;2023-07-28T08:55:51;19.10;99.90
20182;DHT22;10250;50.756;6.172;2023-07-28T08:57:52;19.10;99.90
20182;DHT22;10250;50.756;6.172;2023-07-28T08:59:54;19.10;99.90
20182;DHT22;10250;50.756;6.172;2023-07-28T09:01:57;19.10;99.90
20182;DHT22;10250;50.756;6.172;2023-07-28T09:04:01;19.10;99.90
20182;DHT22;10250;50.756;6.172;2023-07-28T09:06:02;19.00;99.90
20182;DHT22;10250;50.756;6.172;2023-07-28T09:08:03;19.00;99.90
20182;DHT22;10250;50.756;6.172;2023-07-28T09:10:05;18.90;99.90
20182;DHT22;10250;50.756;6.172;2023-07-28T09:12:06;18.90;99.90
20182;DHT22;10250;50.756;6.172;2023-07-28T09:14:11;19.00;99.90
20182;DHT22;10250;50.756;6.172;2023-07-28T09:16:17;19.00;99.90
20182;DHT22;10250;50.756;6.172;2023-07-28T09:18:18;19.00;99.90
20182;DHT22;10250;50.756;6.172;2023-07-28T09:20:19;19.10;99.90
20182;DHT22;10250;50.756;6.172;2023-07-28T09:22:20;19.00;99.90
20182;DHT22;10250;50.756;6.172;2023-07-28T09:24:21;19.10;99.90
20182;DHT22;10250;50.756;6.172;2023-07-28T09:26:22;19.20;99.90
20182;DHT22;10250;50.756;6.172;2023-07-28T09:28:23;19.40;99.90
20182;DHT22;10250;50.756;6.172;2023-07-28T09:30:26;19.50;99.90
20182;DHT22;10250;50.756;6.172;2023-07-28T09:32:35;19.70;99.90
20182;DHT22;10250;50.756;6.172;2023-07-28T09:34:38;19.80;99.90
20182;DHT22;10250;50.756;6.172;2023-07-28T09:36:39;19.70;99.90
20182;DHT22;10250;50.756;6.172;2023-07-28T09:38:41;19.60;99.90
20182;DHT22;10250;50.756;6.172;2023-07-28T09:40:43;19.60;99.90
20182;DHT22;10250;50.756;6.172;2023-07-28T09:42:46;19.60;99.90
20182;DHT22;10250;50.756;6.172;2023-07-28T09:44:49;19.60;99.90
20182;DHT22;10250;50.756;6.172;2023-07-28T09:46:52;19.60;99.90
20182;DHT22;10250;50.756;6.172;2023-07-28T09:48:56;19.50;99.90
20182;DHT22;10250;50.756;6.172;2023-07-28T09:51:12;19.50;99.90
20182;DHT22;10250;50.756;6.172;2023-07-28T09:53:16;19.50;99.90
20182;DHT22;10250;50.756;6.172;2023-07-28T09:55:17;19.50;99.90
20182;DHT22;10250;50.756;6.172;2023-07-28T09:57:20;19.50;99.90
20182;DHT22;10250;50.756;6.172;2023-07-28T09:59:21;19.60;99.90
20182;DHT22;10250;50.756;6.172;2023-07-28T10:01:24;19.60;99.90
20182;DHT22;10250;50.756;6.172;2023-07-28T10:03:26;19.50;99.90
20182;DHT22;10250;50.756;6.172;2023-07-28T10:05:27;19.40;99.90
20182;DHT22;10250;50.756;6.172;2023-07-28T10:07:28;19.30;99.90
20182;DHT22;10250;50.756;6.172;2023-07-28T10:09:30;19.40;99.90
20182;DHT22;10250;50.756;6.172;2023-07-28T10:11:31;19.30;99.90
20182;DHT22;10250;50.756;6.172;2023-07-28T10:13:45;19.30;99.90
20182;DHT22;10250;50.756;6.172;2023-07-28T10:15:46;19.30;99.90
20182;DHT22;10250;50.756;6.172;2023-07-28T10:17:51;19.30;99.90
20182;DHT22;10250;50.756;6.172;2023-07-28T10:19:53;19.30;99.90
20182;DHT22;10250;50.756;6.172;2023-07-28T10:22:01;19.30;99.90
20182;DHT22;10250;50.756;6.172;2023-07-28T10:24:04;19.30;99.90
20182;DHT22;10250;50.756;6.172;2023-07-28T10:26:05;19.30;99.90
20182;DHT22;10250;50.756;6.172;2023-07-28T10:28:07;19.40;99.90
20182;DHT22;10250;50.756;6.172;2023-07-28T10:30:25;19.40;99.90
20182;DHT22;10250;50.756;6.172;2023-07-28T10:32:26;19.30;99.90
20182;DHT22;10250;50.756;6.172;2023-07-28T10:34:30;19.20;99.90
20182;DHT22;10250;50.756;6.172;2023-07-28T10:36:34;19.20;99.90
20182;DHT22;10250;50.756;6.172;2023-07-28T10:38:37;19.10;99.90
20182;DHT22;10250;50.756;6.172;2023-07-28T10:40:38;19.10;99.90
20182;DHT22;10250;50.756;6.172;2023-07-28T10:42:39;19.10;99.90
20182;DHT22;10250;50.756;6.172;2023-07-28T10:44:40;19.10;99.90
20182;DHT22;10250;50.756;6.172;2023-07-28T10:46:40;19.20;99.90
20182;DHT22;10250;50.756;6.172;2023-07-28T10:48:43;19.20;99.90
20182;DHT22;10250;50.756;6.172;2023-07-28T10:50:44;19.30;99.90
20182;DHT22;10250;50.756;6.172;2023-07-28T10:52:45;19.40;99.90
20182;DHT22;10250;50.756;6.172;2023-07-28T10:54:46;19.50;99.90
20182;DHT22;10250;50.756;6.172;2023-07-28T10:56:47;19.60;99.90
20182;DHT22;10250;50.756;6.172;2023-07-28T10:58:56;19.60;99.90
20182;DHT22;10250;50.756;6.172;2023-07-28T11:00:57;19.80;99.90
20182;DHT22;10250;50.756;6.172;2023-07-28T11:02:57;19.90;99.90
20182;DHT22;10250;50.756;6.172;2023-07-28T11:04:58;20.00;99.90
20182;DHT22;10250;50.756;6.172;2023-07-28T11:06:59;20.00;99.90
20182;DHT22;10250;50.756;6.172;2023-07-28T11:08:59;20.00;99.90
20182;DHT22;10250;50.756;6.172;2023-07-28T11:11:03;20.10;99.90
20182;DHT22;10250;50.756;6.172;2023-07-28T11:13:06;20.10;99.90
20182;DHT22;10250;50.756;6.172;2023-07-28T11:15:08;20.10;99.90
20182;DHT22;10250;50.756;6.172;2023-07-28T11:17:11;19.90;99.90
20182;DHT22;10250;50.756;6.172;2023-07-28T11:19:13;19.80;99.90
20182;DHT22;10250;50.756;6.172;2023-07-28T11:21:22;19.80;99.90
20182;DHT22;10250;50.756;6.172;2023-07-28T11:23:22;19.80;99.90
20182;DHT22;10250;50.756;6.172;2023-07-28T11:25:24;19.70;99.90
20182;DHT22;10250;50.756;6.172;2023-07-28T11:27:25;19.70;99.90
20182;DHT22;10250;50.756;6.172;2023-07-28T11:29:26;19.60;99.90
20182;DHT22;10250;50.756;6.172;2023-07-28T11:31:28;19.60;99.90
20182;DHT22;10250;50.756;6.172;2023-07-28T11:33:29;19.70;99.90
20182;DHT22;10250;50.756;6.172;2023-07-28T11:35:29;19.70;99.90
20182;DHT22;10250;50.756;6.172;2023-07-28T11:37:30;19.80;99.90
20182;DHT22;10250;50.756;6.172;2023-07-28T11:39:32;19.90;99.90
20182;DHT22;10250;50.756;6.172;2023-07-28T11:41:33;19.90;99.90
20182;DHT22;10250;50.756;6.172;2023-07-28T11:43:35;19.90;99.90
20182;DHT22;10250;50.756;6.172;2023-07-28T11:45:36;19.80;99.90
20182;DHT22;10250;50.756;6.172;2023-07-28T11:47:36;19.80;99.90
20182;DHT22;10250;50.756;6.172;2023-07-28T11:49:46;19.80;99.90
20182;DHT22;10250;50.756;6.172;2023-07-28T11:51:49;19.80;99.90
20182;DHT22;10250;50.756;6.172;2023-07-28T11:53:50;19.90;99.90
20182;DHT22;10250;50.756;6.172;2023-07-28T11:55:51;19.90;99.90
20182;DHT22;10250;50.756;6.172;2023-07-28T11:57:52;20.00;99.90
20182;DHT22;10250;50.756;6.172;2023-07-28T11:59:53;19.90;99.90
20182;DHT22;10250;50.756;6.172;2023-07-28T12:02:02;19.80;99.90
20182;DHT22;10250;50.756;6.172;2023-07-28T12:06:25;19.60;99.90
20182;DHT22;10250;50.756;6.172;2023-07-28T12:08:36;19.70;99.90
20182;DHT22;10250;50.756;6.172;2023-07-28T12:10:37;19.70;99.90
20182;DHT22;10250;50.756;6.172;2023-07-28T12:12:42;19.80;99.90
20182;DHT22;10250;50.756;6.172;2023-07-28T12:14:44;19.70;99.90
20182;DHT22;10250;50.756;6.172;2023-07-28T12:16:47;19.60;99.90
20182;DHT22;10250;50.756;6.172;2023-07-28T12:18:48;19.50;99.90
20182;DHT22;10250;50.756;6.172;2023-07-28T12:20:51;19.30;99.90
20182;DHT22;10250;50.756;6.172;2023-07-28T12:22:52;19.30;99.90
20182;DHT22;10250;50.756;6.172;2023-07-28T12:24:54;19.40;99.90
20182;DHT22;10250;50.756;6.172;2023-07-28T12:26:55;19.50;99.90
20182;DHT22;10250;50.756;6.172;2023-07-28T12:28:55;19.50;99.90
20182;DHT22;10250;50.756;6.172;2023-07-28T12:30:56;19.60;99.90
20182;DHT22;10250;50.756;6.172;2023-07-28T12:32:59;19.60;99.90
20182;DHT22;10250;50.756;6.172;2023-07-28T12:35:00;19.60;99.90
20182;DHT22;10250;50.756;6.172;2023-07-28T12:37:01;19.60;99.90
20182;DHT22;10250;50.756;6.172;2023-07-28T12:39:02;19.60;99.90
20182;DHT22;10250;50.756;6.172;2023-07-28T12:41:03;19.60;99.90
20182;DHT22;10250;50.756;6.172;2023-07-28T12:43:04;19.60;99.90
20182;DHT22;10250;50.756;6.172;2023-07-28T12:45:05;19.60;99.90
20182;DHT22;10250;50.756;6.172;2023-07-28T12:47:07;19.60;99.90
20182;DHT22;10250;50.756;6.172;2023-07-28T12:49:08;19.70;99.90
20182;DHT22;10250;50.756;6.172;2023-07-28T12:51:09;19.60;99.90
20182;DHT22;10250;50.756;6.172;2023-07-28T12:53:10;19.60;99.90